Time;durP1;ratioP1;P1;durP2;ratioP2;P2;SDS_P1;SDS_P2;PMS_P1;PMS_P2;Temp;Humidity;BMP_temperature;BMP_pressure;BME280_temperature;BME280_humidity;BME280_pressure;Samples;Min_cycle;Max_cycle;Signal;HPM_P1;HPM_P2
2022/07/21 00:00:57;;;;;;;9.93;4.10;;;;;;;21.62;67.17;101203.00;2026364;29;20079;-64
2022/07/21 00:02:00;;;;;;;5.45;3.20;;;;;;;21.63;67.20;101208.16;2024689;29;20057;-64
2022/07/21 00:03:05;;;;;;;9.63;3.70;;;;;;;21.64;67.22;101203.47;2020957;29;20059;-64
2022/07/21 00:04:07;;;;;;;7.70;3.28;;;;;;;21.65;67.18;101205.06;2017272;29;20056;-64
2022/07/21 00:05:11;;;;;;;6.78;3.63;;;;;;;21.65;67.22;101205.84;2023551;29;20048;-64
2022/07/21 00:06:15;;;;;;;7.20;3.72;;;;;;;21.65;67.20;101199.59;2031567;29;20158;-63
2022/07/21 00:07:23;;;;;;;5.60;3.67;;;;;;;21.66;67.34;101206.69;2031342;29;20051;-63
2022/07/21 00:08:27;;;;;;;6.88;3.67;;;;;;;21.65;67.45;101210.53;2024241;29;20519;-64
2022/07/21 00:09:30;;;;;;;6.88;3.53;;;;;;;21.67;67.35;101205.53;2025194;29;20057;-65
2022/07/21 00:10:33;;;;;;;9.25;3.80;;;;;;;21.67;67.43;101208.28;2032773;29;20056;-64
2022/07/21 00:11:37;;;;;;;8.02;3.83;;;;;;;21.67;67.66;101211.81;2032932;29;20044;-64
2022/07/21 00:12:41;;;;;;;8.95;3.63;;;;;;;21.67;67.53;101206.31;2032023;29;20055;-63
2022/07/21 00:13:44;;;;;;;7.25;3.63;;;;;;;21.68;67.34;101215.34;2024249;29;20174;-64
2022/07/21 00:14:49;;;;;;;8.07;3.83;;;;;;;21.67;67.46;101211.00;2024007;29;20048;-64
2022/07/21 00:15:53;;;;;;;5.55;3.50;;;;;;;21.69;67.39;101214.19;2032043;29;20044;-64
2022/07/21 00:17:02;;;;;;;7.22;3.70;;;;;;;21.68;67.53;101212.59;2025292;29;20053;-64
2022/07/21 00:18:04;;;;;;;9.90;4.03;;;;;;;21.67;67.57;101214.53;2025739;29;20071;-64
2022/07/21 00:19:08;;;;;;;6.55;3.70;;;;;;;21.68;67.76;101215.34;2025515;29;20465;-64
2022/07/21 00:20:12;;;;;;;8.88;3.97;;;;;;;21.68;67.70;101215.34;2032348;29;20074;-64
2022/07/21 00:21:17;;;;;;;6.88;3.40;;;;;;;21.68;67.50;101218.06;2032833;29;20074;-64
2022/07/21 00:22:19;;;;;;;5.63;3.58;;;;;;;21.68;67.49;101220.81;2033029;29;20524;-64
2022/07/21 00:23:25;;;;;;;11.88;4.00;;;;;;;21.68;67.69;101218.06;2032093;29;20373;-64
2022/07/21 00:24:31;;;;;;;11.63;4.07;;;;;;;21.67;67.57;101213.75;2032247;29;20052;-63
2022/07/21 00:25:35;;;;;;;6.75;3.88;;;;;;;21.68;67.64;101220.81;2032478;29;20048;-63
2022/07/21 00:26:36;;;;;;;5.70;3.72;;;;;;;21.66;67.69;101218.41;2024553;29;20413;-63
2022/07/21 00:27:39;;;;;;;12.18;3.65;;;;;;;21.65;67.65;101216.00;2009125;29;20163;-63
2022/07/21 00:28:40;;;;;;;8.40;3.70;;;;;;;21.64;67.86;101212.47;2024725;29;20422;-64
2022/07/21 00:29:45;;;;;;;6.68;3.90;;;;;;;21.66;67.77;101217.63;2032548;29;20044;-64
2022/07/21 00:30:49;;;;;;;6.40;3.80;;;;;;;21.63;67.79;101213.63;2031919;29;20040;-64
2022/07/21 00:32:00;;;;;;;7.38;3.40;;;;;;;21.62;67.98;101209.25;2017430;29;20044;-64
2022/07/21 00:33:07;;;;;;;9.77;3.92;;;;;;;21.61;67.87;101209.63;2025729;29;20444;-63
2022/07/21 00:34:09;;;;;;;9.98;4.18;;;;;;;21.56;68.14;101202.41;2032444;29;20044;-63
2022/07/21 00:35:15;;;;;;;10.23;3.42;;;;;;;21.54;68.12;101198.44;2031621;29;20456;-64
2022/07/21 00:36:23;;;;;;;16.50;4.93;;;;;;;21.49;68.41;101192.00;2024466;29;20517;-64
2022/07/21 00:37:29;;;;;;;12.38;3.95;;;;;;;21.48;68.27;101198.63;2025332;29;20052;-63
2022/07/21 00:38:33;;;;;;;9.05;4.28;;;;;;;21.49;68.42;101200.22;2016796;29;20044;-64
2022/07/21 00:39:38;;;;;;;20.98;4.47;;;;;;;21.48;68.46;101206.84;2016963;29;20057;-64
2022/07/21 00:40:48;;;;;;;11.07;4.22;;;;;;;21.49;68.53;101202.16;2024245;29;20655;-65
2022/07/21 00:41:52;;;;;;;10.93;3.97;;;;;;;21.48;68.49;101201.38;2024012;29;20056;-63
2022/07/21 00:42:59;;;;;;;8.60;4.13;;;;;;;21.48;68.45;101195.91;2016841;29;20084;-63
2022/07/21 00:44:03;;;;;;;9.23;4.10;;;;;;;21.49;68.63;101200.22;2017593;29;20044;-63
2022/07/21 00:45:08;;;;;;;10.48;4.00;;;;;;;21.47;68.87;101199.78;2008780;29;20049;-64
2022/07/21 00:46:10;;;;;;;10.45;3.97;;;;;;;21.50;68.54;101201.00;2017529;29;20048;-64
2022/07/21 00:47:18;;;;;;;8.98;3.80;;;;;;;21.46;68.68;101195.41;2031258;29;20766;-63
2022/07/21 00:48:24;;;;;;;6.05;3.78;;;;;;;21.49;68.71;101208.44;2014877;29;20065;-64
2022/07/21 00:49:31;;;;;;;6.18;3.72;;;;;;;21.47;68.62;101204.44;2002172;29;20042;-63
2022/07/21 00:50:40;;;;;;;8.48;3.92;;;;;;;21.45;68.82;101210.25;1995627;29;20054;-64
2022/07/21 00:51:45;;;;;;;5.97;3.70;;;;;;;21.48;68.88;101217.78;2025657;29;20043;-63
2022/07/21 00:52:49;;;;;;;5.57;3.60;;;;;;;21.47;69.04;101213.44;2039966;29;20388;-64
2022/07/21 00:53:51;;;;;;;7.35;3.80;;;;;;;21.47;68.72;101218.13;2039672;29;20055;-63
2022/07/21 00:54:56;;;;;;;5.93;3.60;;;;;;;21.47;68.80;101216.19;2038986;29;20408;-63
2022/07/21 00:56:00;;;;;;;6.55;3.63;;;;;;;21.48;68.71;101214.25;2016779;29;20058;-64
2022/07/21 00:57:03;;;;;;;9.32;3.75;;;;;;;21.50;68.81;101215.53;2023785;29;20040;-63
2022/07/21 00:58:08;;;;;;;6.22;3.90;;;;;;;21.50;69.10;101218.25;2032280;29;20056;-64
2022/07/21 00:59:11;;;;;;;9.00;3.72;;;;;;;;;;2031374;29;20107;-64
2022/07/21 01:00:24;;;;;;;9.45;3.70;;;;;;;21.51;68.96;101228.06;2024332;29;20497;-63
2022/07/21 01:01:30;;;;;;;11.70;3.92;;;;;;;21.54;68.73;101228.53;2027910;29;20051;-64
2022/07/21 01:02:36;;;;;;;5.00;3.65;;;;;;;21.55;68.79;101227.38;2024780;29;20045;-64
2022/07/21 01:03:43;;;;;;;6.82;4.30;;;;;;;21.56;68.92;101228.97;2031332;29;20449;-64
2022/07/21 01:04:47;;;;;;;5.55;3.83;;;;;;;21.55;68.74;101221.91;2023741;29;20056;-64
2022/07/21 01:05:52;;;;;;;10.23;4.10;;;;;;;21.57;68.85;101233.31;2027896;29;20044;-64
2022/07/21 01:06:59;;;;;;;6.28;4.45;;;;;;;21.57;68.94;101230.59;2031197;29;20175;-64
2022/07/21 01:08:05;;;;;;;7.05;4.22;;;;;;;21.56;68.95;101223.50;2031699;29;20060;-64
2022/07/21 01:09:10;;;;;;;8.60;3.70;;;;;;;21.57;68.88;101228.66;2032330;29;20048;-64
2022/07/21 01:10:14;;;;;;;7.10;3.70;;;;;;;21.58;68.98;101232.19;2031872;29;20064;-64
2022/07/21 01:11:24;;;;;;;11.48;4.15;;;;;;;21.59;68.88;101231.03;2031902;29;20052;-64
2022/07/21 01:12:31;;;;;;;10.68;4.07;;;;;;;21.58;68.86;101221.22;2029269;29;20055;-64
2022/07/21 01:13:41;;;;;;;7.88;3.75;;;;;;;21.58;68.76;101218.50;2031868;29;20410;-64
2022/07/21 01:14:43;;;;;;;10.00;4.30;;;;;;;21.58;69.00;101224.75;2023876;29;20586;-64
2022/07/21 01:15:47;;;;;;;9.13;3.90;;;;;;;21.59;68.98;101214.63;2008317;29;20449;-64
2022/07/21 01:16:50;;;;;;;14.75;3.75;;;;;;;21.59;69.07;101215.41;2009632;29;20045;-64
2022/07/21 01:17:53;;;;;;;11.77;4.32;;;;;;;21.61;68.87;101217.81;2017086;29;20564;-63
2022/07/21 01:18:57;;;;;;;15.05;4.22;;;;;;;21.60;68.83;101210.75;2031766;29;20377;-63
2022/07/21 01:20:08;;;;;;;9.57;3.83;;;;;;;21.60;68.98;101202.56;2031911;29;20052;-64
2022/07/21 01:21:33;;;;;;;7.43;3.70;;;;;;;21.57;68.75;101205.97;2025457;29;20044;-63
2022/07/21 01:22:40;;;;;;;11.77;4.07;;;;;;;21.58;68.79;101210.28;2024070;29;20071;-63
2022/07/21 01:23:42;;;;;;;12.35;4.45;;;;;;;21.56;68.88;101204.34;2014507;29;20052;-63
2022/07/21 01:24:47;;;;;;;9.85;4.68;;;;;;;21.56;68.93;101201.59;2023681;29;20052;-63
2022/07/21 01:25:56;;;;;;;10.40;4.20;;;;;;;21.52;69.03;101209.69;2015796;29;20049;-64
2022/07/21 01:27:00;;;;;;;10.65;4.00;;;;;;;21.52;68.89;101202.28;2011395;29;20053;-63
2022/07/21 01:28:07;;;;;;;8.18;4.28;;;;;;;21.52;69.03;101205.00;2016271;29;20064;-63
2022/07/21 01:29:12;;;;;;;8.98;4.40;;;;;;;21.50;69.19;101210.03;2026622;29;20040;-64
2022/07/21 01:30:19;;;;;;;;;;;;;;;21.52;69.15;101206.97;2032607;29;20040;-64
2022/07/21 01:31:24;;;;;;;8.15;4.32;;;;;;;21.48;69.19;101209.56;2032174;29;19922;-63
2022/07/21 01:32:36;;;;;;;5.75;4.07;;;;;;;21.50;68.93;101203.75;2024004;29;20064;-63
2022/07/21 01:33:42;;;;;;;8.85;4.20;;;;;;;21.49;69.08;101200.22;2025452;29;20509;-63
2022/07/21 01:34:45;;;;;;;6.07;4.05;;;;;;;21.50;68.92;101204.56;2024667;29;20048;-64
2022/07/21 01:35:49;;;;;;;8.05;4.43;;;;;;;21.48;69.13;101209.56;2031211;29;20047;-63
2022/07/21 01:36:57;;;;;;;8.05;4.25;;;;;;;21.47;69.13;101205.25;2024121;29;20401;-64
2022/07/21 01:41:28;;;;;;;7.95;3.78;;;;;;;21.46;69.24;101203.63;2031652;29;20051;-64
2022/07/21 01:42:20;;;;;;;5.82;3.70;;;;;;;21.42;69.45;101201.91;2031354;29;20048;-64
2022/07/21 01:43:28;;;;;;;6.65;3.67;;;;;;;21.43;69.69;101207.03;2024358;29;20052;-64
2022/07/21 01:44:35;;;;;;;6.00;4.00;;;;;;;21.41;69.55;101212.06;2031688;29;20044;-64
2022/07/21 01:45:39;;;;;;;5.93;4.20;;;;;;;21.38;69.79;101207.25;2031403;29;20064;-64
2022/07/21 01:46:45;;;;;;;7.55;4.18;;;;;;;21.38;69.98;101201.78;2031126;29;20071;-64
2022/07/21 01:47:49;;;;;;;10.07;4.53;;;;;;;21.39;69.83;101208.84;2031010;29;20456;-64
2022/07/21 01:48:51;;;;;;;7.45;3.47;;;;;;;21.38;69.98;101207.25;2024014;29;20056;-63
2022/07/21 01:49:53;;;;;;;11.27;4.30;;;;;;;21.41;69.97;101209.31;2016361;29;20041;-64
2022/07/21 01:51:05;;;;;;;;;;;;;;;21.38;70.01;101201.78;2018929;29;20183;-64
2022/07/21 01:52:08;;;;;;;7.47;3.92;;;;;;;21.37;69.98;101211.13;2022292;29;19926;-64
2022/07/21 01:53:12;;;;;;;8.30;4.25;;;;;;;21.37;70.13;101211.13;2032240;29;20392;-65
2022/07/21 01:54:14;;;;;;;8.10;4.15;;;;;;;21.38;69.86;101212.72;2039613;29;20062;-65
2022/07/21 01:55:16;;;;;;;6.97;3.80;;;;;;;21.37;69.99;101221.25;2036347;29;20063;-64
2022/07/21 01:56:24;;;;;;;6.38;4.05;;;;;;;21.34;70.12;101219.97;2023877;29;20041;-64
2022/07/21 01:57:27;;;;;;;7.03;4.03;;;;;;;21.34;70.28;101221.91;2017036;29;20131;-64
2022/07/21 01:58:31;;;;;;;6.07;4.13;;;;;;;21.34;70.33;101209.00;2023594;29;20067;-64
2022/07/21 01:59:41;;;;;;;7.50;4.10;;;;;;;21.35;70.21;101210.66;2030124;29;20064;-64
2022/07/21 02:00:47;;;;;;;8.65;4.20;;;;;;;21.33;70.15;101212.91;2023291;29;20052;-63
2022/07/21 02:01:49;;;;;;;7.05;3.88;;;;;;;21.34;70.42;101219.16;2023612;29;20070;-63
2022/07/21 02:02:53;;;;;;;7.85;4.10;;;;;;;21.33;70.44;101207.44;2024533;29;20052;-64
2022/07/21 02:04:03;;;;;;;6.55;4.30;;;;;;;21.33;70.35;101217.56;2008439;29;20045;-64
2022/07/21 02:05:09;;;;;;;5.78;4.10;;;;;;;21.31;70.70;101220.63;2012512;29;20049;-63
2022/07/21 02:06:16;;;;;;;8.30;4.30;;;;;;;21.32;70.51;101214.03;2023456;29;20051;-64
2022/07/21 02:07:21;;;;;;;7.85;4.18;;;;;;;21.28;70.69;101213.91;2024641;29;20075;-63
2022/07/21 02:08:26;;;;;;;6.47;4.10;;;;;;;21.26;70.75;101213.44;2031267;29;20088;-63
2022/07/21 02:09:37;;;;;;;6.53;4.03;;;;;;;21.26;70.67;101220.84;2025314;29;20465;-64
2022/07/21 02:10:41;;;;;;;6.15;3.83;;;;;;;21.25;70.63;101216.53;2023651;29;20048;-63
2022/07/21 02:11:43;;;;;;;6.60;4.53;;;;;;;21.24;70.66;101214.91;2016266;29;20061;-63
2022/07/21 02:12:45;;;;;;;5.47;4.20;;;;;;;21.25;70.50;101213.78;2031655;29;20055;-63
2022/07/21 02:13:48;;;;;;;7.97;4.53;;;;;;;21.23;70.61;101214.09;2030916;29;20052;-63
2022/07/21 02:14:51;;;;;;;7.03;4.38;;;;;;;21.21;70.58;101207.38;2031545;29;20040;-64
2022/07/21 02:15:54;;;;;;;8.05;4.50;;;;;;;21.21;70.63;101218.31;2031489;29;20048;-64
2022/07/21 02:17:00;;;;;;;9.27;4.38;;;;;;;21.22;70.42;101209.00;2015995;29;20052;-63
2022/07/21 02:18:03;;;;;;;7.22;4.32;;;;;;;21.23;70.50;101210.56;2017691;29;20149;-64
2022/07/21 02:19:15;;;;;;;7.30;4.20;;;;;;;21.23;70.37;101216.84;2030957;29;20060;-63
2022/07/21 02:20:19;;;;;;;7.03;4.72;;;;;;;21.24;70.37;101203.97;2024444;29;20032;-64
2022/07/21 02:21:23;;;;;;;7.22;4.28;;;;;;;21.23;70.41;101211.38;2024129;29;20456;-64
2022/07/21 02:22:27;;;;;;;9.50;4.25;;;;;;;21.22;70.45;101214.47;2023720;29;20044;-64
2022/07/21 02:23:31;;;;;;;8.07;4.70;;;;;;;21.21;70.26;101213.63;2008569;29;20041;-64
2022/07/21 02:24:34;;;;;;;6.85;4.20;;;;;;;21.22;70.40;101219.94;2009759;29;20061;-64
2022/07/21 02:25:37;;;;;;;8.88;4.60;;;;;;;21.21;70.58;101215.56;2023936;29;20048;-64
2022/07/21 02:26:39;;;;;;;7.65;4.57;;;;;;;21.21;70.64;101207.38;2030650;29;20064;-64
2022/07/21 02:27:43;;;;;;;11.57;4.35;;;;;;;21.17;70.67;101212.72;2031573;29;20047;-64
2022/07/21 02:28:48;;;;;;;8.25;4.40;;;;;;;21.21;70.41;101208.16;2023703;29;20041;-64
2022/07/21 02:29:56;;;;;;;5.90;4.10;;;;;;;21.20;70.59;101209.31;2023830;29;20029;-64
2022/07/21 02:31:05;;;;;;;8.75;4.45;;;;;;;21.20;70.56;101212.03;2023540;29;20064;-64
2022/07/21 02:32:10;;;;;;;7.43;4.65;;;;;;;21.18;70.60;101208.03;2023596;29;20048;-64
2022/07/21 02:33:12;;;;;;;6.95;4.28;;;;;;;21.21;70.66;101212.84;2016022;29;20052;-64
2022/07/21 02:34:15;;;;;;;8.68;4.65;;;;;;;21.19;70.94;101204.19;2015970;29;20068;-64
2022/07/21 02:35:17;;;;;;;5.13;4.00;;;;;;;21.15;70.79;101205.97;2023397;29;20068;-64
2022/07/21 02:36:22;;;;;;;8.63;4.38;;;;;;;21.12;71.06;101209.38;2023763;29;20049;-64
2022/07/21 02:37:24;;;;;;;7.93;4.55;;;;;;;21.10;71.25;101206.19;2031628;29;20059;-64
2022/07/21 02:38:26;;;;;;;7.22;4.20;;;;;;;21.11;71.18;101208.56;2024304;29;20060;-65
2022/07/21 02:39:31;;;;;;;6.03;4.40;;;;;;;21.11;71.00;101205.03;2018073;29;20073;-64
2022/07/21 02:40:34;;;;;;;5.57;3.70;;;;;;;21.10;71.10;101206.19;2028752;29;20048;-64
2022/07/21 02:41:38;;;;;;;7.18;4.45;;;;;;;21.12;71.09;101204.69;2032422;29;20064;-64
2022/07/21 02:42:41;;;;;;;7.82;4.68;;;;;;;21.12;70.89;101203.91;2032382;29;20056;-64
2022/07/21 02:43:45;;;;;;;8.68;4.45;;;;;;;21.12;70.71;101204.69;2032751;29;20040;-64
2022/07/21 02:44:48;;;;;;;6.32;4.35;;;;;;;21.09;70.89;101205.41;2032673;29;20066;-64
2022/07/21 02:45:56;;;;;;;7.82;4.60;;;;;;;21.08;70.97;101197.50;2032946;29;20047;-65
2022/07/21 02:47:00;;;;;;;7.00;4.60;;;;;;;21.09;70.80;101201.84;2025284;29;20417;-64
2022/07/21 02:48:07;;;;;;;6.05;4.35;;;;;;;21.06;70.99;101206.84;2018827;29;20048;-64
2022/07/21 02:49:14;;;;;;;6.18;4.28;;;;;;;21.03;71.01;101202.06;2026383;29;20045;-64
2022/07/21 02:50:26;;;;;;;5.80;4.25;;;;;;;21.00;71.14;101197.25;2032197;29;20059;-64
2022/07/21 02:51:29;;;;;;;;;;;;;;;21.01;70.81;101196.09;2034112;29;20060;-64
2022/07/21 02:52:33;;;;;;;7.75;4.07;;;;;;;20.98;70.90;101198.72;2040657;29;19918;-64
2022/07/21 02:53:37;;;;;;;6.65;3.95;;;;;;;20.98;70.69;101194.03;2032382;29;20055;-64
2022/07/21 02:54:39;;;;;;;9.57;4.70;;;;;;;21.00;70.72;101197.25;2033154;29;20405;-64
2022/07/21 02:55:47;;;;;;;6.57;4.18;;;;;;;21.00;70.86;101196.47;2033559;29;20432;-64
2022/07/21 02:56:52;;;;;;;9.23;4.60;;;;;;;20.98;70.81;101191.31;2031354;29;20048;-64
2022/07/21 02:58:27;;;;;;;9.45;4.65;;;;;;;20.99;70.62;101194.84;2017380;29;20045;-63
2022/07/21 02:59:31;;;;;;;6.00;4.30;;;;;;;21.00;70.52;101196.47;2015515;29;20063;-64
2022/07/21 03:00:36;;;;;;;7.45;4.18;;;;;;;20.98;70.73;101187.78;2032146;29;20418;-64
2022/07/21 03:01:43;;;;;;;6.97;3.85;;;;;;;20.99;70.65;101186.63;2025035;29;20592;-64
2022/07/21 03:02:49;;;;;;;7.07;4.68;;;;;;;21.00;70.67;101191.78;2026454;29;20421;-64
2022/07/21 03:03:51;;;;;;;6.68;4.40;;;;;;;21.02;70.89;101189.50;2032800;29;20070;-64
2022/07/21 03:04:55;;;;;;;8.48;4.57;;;;;;;21.04;70.75;101194.66;2017733;29;20053;-64
2022/07/21 03:05:59;;;;;;;12.07;4.70;;;;;;;21.03;70.58;101191.13;2017903;29;20044;-65
2022/07/21 03:07:04;;;;;;;6.60;4.55;;;;;;;21.04;70.52;101189.97;2025700;29;20033;-64
2022/07/21 03:08:08;;;;;;;6.18;4.45;;;;;;;21.03;70.58;101191.13;2024418;29;20068;-64
2022/07/21 03:09:14;;;;;;;10.00;4.53;;;;;;;21.00;70.92;101191.78;2018303;29;20097;-64
2022/07/21 03:10:18;;;;;;;7.78;4.20;;;;;;;21.02;70.93;101194.16;2010443;29;20041;-64
2022/07/21 03:11:20;;;;;;;10.00;4.60;;;;;;;21.01;71.03;101187.91;2017541;29;20048;-64
2022/07/21 03:12:22;;;;;;;6.95;4.40;;;;;;;21.03;71.04;101196.59;2024869;29;20063;-64
2022/07/21 03:13:29;;;;;;;7.43;4.40;;;;;;;21.03;70.77;101188.38;2017438;29;20092;-64
2022/07/21 03:14:31;;;;;;;8.00;4.68;;;;;;;21.03;71.02;101191.13;2019144;29;20413;-64
2022/07/21 03:15:34;;;;;;;6.82;4.38;;;;;;;21.05;71.15;101194.28;2017565;29;20040;-64
2022/07/21 03:16:40;;;;;;;8.40;4.88;;;;;;;21.07;70.97;101191.25;2025167;29;20032;-64
2022/07/21 03:17:43;;;;;;;9.98;4.53;;;;;;;21.05;71.01;101183.38;2032942;29;20424;-64
2022/07/21 03:18:47;;;;;;;8.30;5.00;;;;;;;21.06;71.27;101195.91;2025299;29;20450;-64
2022/07/21 03:19:49;;;;;;;11.82;5.25;;;;;;;21.09;71.45;101193.63;2018070;29;20060;-64
2022/07/21 03:20:52;;;;;;;6.75;4.70;;;;;;;21.08;71.21;101187.38;2018256;29;20049;-64
2022/07/21 03:21:56;;;;;;;8.90;5.47;;;;;;;21.11;71.27;101192.16;2025208;29;20048;-64
2022/07/21 03:23:03;;;;;;;8.52;4.82;;;;;;;21.14;71.22;101187.97;2025132;29;20071;-64
2022/07/21 03:24:07;;;;;;;6.85;4.97;;;;;;;21.16;71.15;101185.72;2022382;29;20040;-64
2022/07/21 03:25:12;;;;;;;8.07;4.53;;;;;;;21.19;70.89;101194.03;2032270;29;20052;-64
2022/07/21 03:26:16;;;;;;;6.88;4.40;;;;;;;21.17;70.76;101190.03;2033749;29;20044;-64
2022/07/21 03:27:23;;;;;;;9.98;4.40;;;;;;;21.19;70.81;101182.31;2033586;29;20036;-64
2022/07/21 03:28:24;;;;;;;8.32;4.90;;;;;;;21.21;70.65;101180.03;2032897;29;20066;-64
2022/07/21 03:29:27;;;;;;;10.32;4.90;;;;;;;21.22;70.61;101173.44;2025242;29;20052;-64
2022/07/21 03:30:29;;;;;;;8.40;4.70;;;;;;;21.22;70.45;101173.44;2032252;29;20052;-64
2022/07/21 03:31:31;;;;;;;7.68;4.75;;;;;;;21.26;70.41;101171.63;2032770;29;20040;-64
2022/07/21 03:32:35;;;;;;;7.10;4.60;;;;;;;21.27;70.38;101174.00;2032343;29;20063;-64
2022/07/21 03:33:36;;;;;;;6.85;4.85;;;;;;;21.25;70.08;101180.97;2036606;29;20032;-64
2022/07/21 03:34:41;;;;;;;8.00;4.75;;;;;;;21.25;70.09;101176.28;2030038;29;20428;-64
2022/07/21 03:35:46;;;;;;;8.20;4.47;;;;;;;21.29;70.18;101181.88;2032541;29;20052;-64
2022/07/21 03:36:51;;;;;;;10.38;4.63;;;;;;;21.33;69.83;101182.81;2030361;29;20409;-64
2022/07/21 03:38:01;;;;;;;7.97;4.57;;;;;;;21.34;69.37;101183.59;2032819;29;20047;-64
2022/07/21 03:39:04;;;;;;;9.38;4.68;;;;;;;21.29;69.43;101181.88;2033469;29;20052;-64
2022/07/21 03:40:15;;;;;;;6.53;4.53;;;;;;;21.41;69.03;101179.22;2032992;29;20056;-63
2022/07/21 03:41:17;;;;;;;5.93;4.22;;;;;;;21.46;69.05;101176.28;2033197;29;20489;-63
2022/07/21 03:42:22;;;;;;;8.15;4.82;;;;;;;21.50;69.00;101182.69;2032012;29;20044;-62
2022/07/21 03:43:28;;;;;;;10.30;5.07;;;;;;;21.59;68.46;101184.50;2007998;29;20433;-62
2022/07/21 03:44:31;;;;;;;8.25;4.78;;;;;;;21.62;68.54;101178.38;2003817;29;20057;-63
2022/07/21 03:45:36;;;;;;;7.22;4.70;;;;;;;21.64;68.18;101189.78;2030092;29;20039;-63
2022/07/21 03:46:43;;;;;;;8.35;4.70;;;;;;;21.63;68.23;101180.00;2029878;29;20738;-63
2022/07/21 03:47:48;;;;;;;7.22;4.90;;;;;;;21.66;67.78;101180.09;2031015;29;20067;-63
2022/07/21 03:48:53;;;;;;;15.80;5.57;;;;;;;21.70;67.94;101181.03;2022852;29;20052;-63
2022/07/21 03:49:55;;;;;;;8.65;5.25;;;;;;;21.70;67.67;101181.03;2016791;29;20060;-63
2022/07/21 03:51:04;;;;;;;8.93;4.30;;;;;;;21.80;67.38;101185.25;2024784;29;20057;-63
2022/07/21 03:52:12;;;;;;;9.27;4.97;;;;;;;21.84;67.25;101190.84;2024554;29;20048;-63
2022/07/21 03:53:16;;;;;;;10.25;4.75;;;;;;;21.88;67.05;101189.84;2024863;29;20047;-61
2022/07/21 03:54:18;;;;;;;15.00;5.30;;;;;;;21.87;66.91;101180.00;2028887;29;20483;-61
2022/07/21 03:55:25;;;;;;;14.23;5.95;;;;;;;21.90;66.87;101189.50;2031316;29;20052;-61
2022/07/21 03:56:28;;;;;;;8.55;4.78;;;;;;;21.96;66.94;101194.41;2024471;29;20049;-62
2022/07/21 03:57:38;;;;;;;8.02;5.13;;;;;;;22.05;66.49;101185.31;2032167;29;20051;-63
2022/07/21 03:58:45;;;;;;;7.65;4.53;;;;;;;22.12;66.02;101191.00;2030920;29;20059;-62
2022/07/21 03:59:48;;;;;;;8.15;5.13;;;;;;;22.19;66.17;101191.25;2031235;29;20048;-62
2022/07/21 04:00:52;;;;;;;9.05;4.50;;;;;;;22.22;65.55;101187.84;2023103;29;20037;-62
2022/07/21 04:01:56;;;;;;;8.90;4.82;;;;;;;22.22;65.68;101190.56;2021526;29;20044;-63
2022/07/21 04:02:59;;;;;;;14.45;5.05;;;;;;;22.24;65.33;101193.00;2027326;29;20040;-62
2022/07/21 04:04:05;;;;;;;8.13;4.75;;;;;;;22.26;65.18;101191.50;2032122;29;20064;-62
2022/07/21 04:05:14;;;;;;;8.07;4.40;;;;;;;22.27;65.17;101190.34;2032178;29;20532;-62
2022/07/21 04:06:15;;;;;;;11.45;4.90;;;;;;;22.36;65.21;101190.25;2028477;29;20055;-62
2022/07/21 04:07:20;;;;;;;7.82;4.40;;;;;;;22.39;64.88;101190.34;2012493;29;20060;-63
2022/07/21 04:08:25;;;;;;;14.60;6.15;;;;;;;22.40;64.46;101186.47;2016039;29;20071;-63
2022/07/21 04:09:28;;;;;;;9.35;4.95;;;;;;;22.43;63.83;101191.25;2023887;29;20063;-62
2022/07/21 04:10:34;;;;;;;7.22;4.78;;;;;;;22.47;63.49;101196.84;2021846;29;20064;-63
2022/07/21 04:11:43;;;;;;;7.28;4.50;;;;;;;22.52;63.54;101187.63;2022820;29;20604;-63
2022/07/21 04:12:48;;;;;;;6.78;4.45;;;;;;;22.58;62.63;101191.72;2016000;29;20053;-63
2022/07/21 04:13:50;;;;;;;8.20;4.88;;;;;;;22.64;62.89;101182.13;2017107;29;20484;-66
2022/07/21 04:14:57;;;;;;;7.60;5.00;;;;;;;22.76;62.86;101187.59;2024158;29;20108;-65
2022/07/21 04:16:00;;;;;;;8.13;4.68;;;;;;;22.82;62.45;101185.38;2030310;29;20079;-65
2022/07/21 04:17:06;;;;;;;8.10;4.55;;;;;;;22.92;62.42;101179.44;2030882;29;20071;-66
2022/07/21 04:18:13;;;;;;;12.50;5.07;;;;;;;22.96;61.71;101183.09;2031052;29;20044;-68
2022/07/21 04:19:14;;;;;;;10.35;4.70;;;;;;;23.04;62.13;101184.09;2030360;29;20048;-65
2022/07/21 04:20:20;;;;;;;9.00;4.63;;;;;;;23.06;61.31;101184.56;2015226;29;20056;-64
2022/07/21 04:21:24;;;;;;;9.85;4.63;;;;;;;23.05;61.25;101178.28;2016812;29;20370;-64
2022/07/21 04:22:29;;;;;;;10.52;6.10;;;;;;;23.11;61.13;101184.31;2017911;29;20045;-64
2022/07/21 04:23:34;;;;;;;12.43;5.80;;;;;;;23.15;60.82;101181.66;2031683;29;20059;-63
2022/07/21 04:24:39;;;;;;;8.93;5.60;;;;;;;23.19;60.71;101183.34;2024400;29;20104;-64
2022/07/21 04:25:44;;;;;;;12.93;4.80;;;;;;;23.25;60.48;101192.94;2024213;29;20060;-64
2022/07/21 04:26:48;;;;;;;6.20;4.45;;;;;;;23.33;60.37;101186.50;2016977;29;20045;-63
2022/07/21 04:27:56;;;;;;;6.72;4.47;;;;;;;23.33;60.20;101186.50;2016730;29;20065;-64
2022/07/21 04:29:03;;;;;;;10.25;4.40;;;;;;;23.40;59.73;101185.91;2027925;29;20488;-63
2022/07/21 04:30:09;;;;;;;7.30;4.85;;;;;;;23.46;59.68;101180.97;2032254;29;20052;-64
2022/07/21 04:31:15;;;;;;;7.78;4.50;;;;;;;23.51;59.15;101184.22;2026569;29;20375;-63
2022/07/21 04:32:18;;;;;;;7.53;4.60;;;;;;;23.47;59.34;101177.06;2039520;29;20511;-63
2022/07/21 04:33:23;;;;;;;7.88;4.70;;;;;;;23.50;59.57;101187.34;2034019;29;20048;-63
2022/07/21 04:34:27;;;;;;;8.55;4.30;;;;;;;23.58;59.50;101183.63;2032578;29;20044;-62
2022/07/21 04:35:29;;;;;;;7.07;4.38;;;;;;;23.63;59.21;101175.13;2015559;29;20061;-63
2022/07/21 04:36:32;;;;;;;7.93;4.68;;;;;;;23.68;58.66;101174.88;2015516;29;20057;-63
2022/07/21 04:37:36;;;;;;;7.97;4.82;;;;;;;23.74;58.71;101180.94;2030225;29;20504;-63
2022/07/21 04:38:40;;;;;;;7.93;4.53;;;;;;;23.82;58.48;101174.47;2030744;29;20052;-63
2022/07/21 04:39:43;;;;;;;10.75;4.60;;;;;;;23.86;58.36;101183.59;2023607;29;20083;-63
2022/07/21 04:40:46;;;;;;;7.30;4.47;;;;;;;23.93;58.57;101188.47;2030035;29;20044;-63
2022/07/21 04:41:47;;;;;;;8.63;4.20;;;;;;;23.98;58.56;101179.97;2023473;29;20068;-63
2022/07/21 04:42:50;;;;;;;7.05;4.53;;;;;;;24.03;58.02;101174.22;2015772;29;20064;-63
2022/07/21 04:43:55;;;;;;;12.63;4.75;;;;;;;24.04;58.07;101175.81;2016288;29;20049;-63
2022/07/21 04:45:02;;;;;;;9.00;4.25;;;;;;;24.08;58.06;101173.16;2024448;29;20067;-63
2022/07/21 04:46:11;;;;;;;11.27;4.53;;;;;;;24.15;57.76;101182.38;2031197;29;20631;-63
2022/07/21 04:47:13;;;;;;;14.15;4.85;;;;;;;24.12;58.08;101180.34;2031131;29;20504;-63
2022/07/21 04:48:17;;;;;;;13.25;5.07;;;;;;;24.11;57.65;101181.47;2031063;29;20040;-63
2022/07/21 04:49:21;;;;;;;9.75;4.80;;;;;;;24.15;57.73;101174.13;2023366;29;20055;-63
2022/07/21 04:50:32;;;;;;;8.00;4.43;;;;;;;24.26;57.85;101177.13;2008339;29;20049;-62
2022/07/21 04:51:34;;;;;;;11.25;5.30;;;;;;;24.28;57.67;101183.88;2017417;29;20038;-63
2022/07/21 04:52:35;;;;;;;9.18;4.82;;;;;;;24.35;57.32;101176.94;2039916;29;20051;-63
2022/07/21 04:53:38;;;;;;;10.48;4.95;;;;;;;24.34;57.09;101164.34;2026975;29;20451;-63
2022/07/21 04:54:47;;;;;;;7.88;4.38;;;;;;;24.43;56.66;101163.03;2017340;29;20057;-64
2022/07/21 04:55:49;;;;;;;10.07;4.65;;;;;;;24.52;56.63;101168.31;2008963;29;20045;-63
2022/07/21 04:56:56;;;;;;;10.63;4.70;;;;;;;24.55;56.48;101167.59;2016458;29;20060;-63
2022/07/21 04:57:59;;;;;;;8.45;4.60;;;;;;;24.60;56.98;101170.09;2024402;29;20052;-63
2022/07/21 04:59:03;;;;;;;13.25;5.03;;;;;;;24.60;56.37;101172.84;2017016;29;20080;-64
2022/07/21 05:00:11;;;;;;;11.88;4.50;;;;;;;24.68;56.00;101174.56;2031592;29;20059;-63
2022/07/21 05:01:13;;;;;;;7.53;4.60;;;;;;;24.68;55.64;101168.28;2031871;29;20052;-63
2022/07/21 05:02:17;;;;;;;10.82;4.65;;;;;;;24.78;55.85;101164.16;2023937;29;20052;-63
2022/07/21 05:03:22;;;;;;;9.43;4.47;;;;;;;24.89;55.26;101165.19;2025011;29;20191;-63
2022/07/21 05:04:24;;;;;;;11.57;5.38;;;;;;;25.00;55.80;101163.47;2032197;29;20044;-64
2022/07/21 05:05:28;;;;;;;14.02;5.00;;;;;;;25.09;55.52;101160.47;2024177;29;20049;-66